Time;durP1;ratioP1;P1;durP2;ratioP2;P2;SDS_P1;SDS_P2;PMS_P1;PMS_P2;Temp;Humidity;BMP_temperature;BMP_pressure;BME280_temperature;BME280_humidity;BME280_pressure;Samples;Min_cycle;Max_cycle;Signal;HPM_P1;HPM_P2
2023/07/03 00:00:18;;;;;;;10.00;8.67;;;17.40;99.90;;;;;;4924062;29;20821;-82
2023/07/03 00:02:49;;;;;;;8.80;7.90;;;17.40;99.90;;;;;;4924677;29;20483;-82
2023/07/03 00:05:17;;;;;;;10.70;8.27;;;17.40;99.90;;;;;;4937343;29;20494;-82
2023/07/03 00:07:46;;;;;;;12.20;9.07;;;17.40;99.90;;;;;;4934833;29;20628;-83
2023/07/03 00:10:16;;;;;;;9.33;8.43;;;17.30;99.90;;;;;;4935314;29;20502;-83
2023/07/03 00:12:44;;;;;;;11.10;8.83;;;17.30;99.90;;;;;;4920448;29;20487;-83
2023/07/03 00:15:12;;;;;;;9.87;9.03;;;17.30;99.90;;;;;;4931808;29;20427;-84
2023/07/03 00:17:39;;;;;;;9.33;8.33;;;17.30;99.90;;;;;;4937524;29;20506;-82
2023/07/03 00:20:10;;;;;;;9.60;8.30;;;17.60;99.90;;;;;;4924047;29;20521;-83
2023/07/03 00:22:37;;;;;;;8.70;7.90;;;17.30;99.90;;;;;;4930990;29;20818;-81
2023/07/03 00:25:05;;;;;;;9.20;7.97;;;17.30;99.90;;;;;;4934004;29;20799;-81
2023/07/03 00:27:32;;;;;;;11.43;8.67;;;17.30;99.90;;;;;;4928614;29;20461;-82
2023/07/03 00:29:59;;;;;;;9.67;8.83;;;17.30;99.90;;;;;;4920916;29;20451;-82
2023/07/03 00:32:29;;;;;;;11.07;8.37;;;17.20;99.90;;;;;;4926221;29;20767;-81
2023/07/03 00:34:56;;;;;;;9.37;8.57;;;17.10;99.90;;;;;;4923536;29;20482;-82
2023/07/03 00:37:23;;;;;;;10.80;9.70;;;17.20;99.90;;;;;;4926252;29;20457;-82
2023/07/03 00:39:50;;;;;;;9.37;8.50;;;17.20;99.90;;;;;;4936996;29;20468;-82
2023/07/03 00:42:17;;;;;;;9.27;8.30;;;17.20;99.90;;;;;;4930760;29;20447;-83
2023/07/03 00:44:44;;;;;;;10.00;8.77;;;17.10;99.90;;;;;;4928725;29;20510;-83
2023/07/03 00:47:11;;;;;;;12.10;8.60;;;17.00;99.90;;;;;;4931809;29;20684;-82
2023/07/03 00:49:39;;;;;;;10.83;9.83;;;17.40;99.90;;;;;;4934148;29;20469;-82
2023/07/03 00:52:08;;;;;;;9.27;8.37;;;17.10;99.90;;;;;;4933302;29;20454;-82
2023/07/03 00:54:35;;;;;;;11.50;9.03;;;17.10;99.90;;;;;;4933307;29;20482;-82
2023/07/03 00:57:04;;;;;;;9.77;8.70;;;17.10;99.90;;;;;;4937968;29;20480;-82
2023/07/03 00:59:33;;;;;;;10.20;8.40;;;17.10;99.90;;;;;;4929093;29;20473;-82
2023/07/03 01:02:42;;;;;;;10.27;8.00;;;17.20;99.90;;;;;;4934073;29;20525;-82
2023/07/03 01:05:22;;;;;;;10.03;9.03;;;17.30;99.90;;;;;;4929172;29;20662;-81
2023/07/03 01:07:52;;;;;;;10.03;9.03;;;17.40;99.90;;;;;;4924399;29;20442;-81
2023/07/03 01:10:23;;;;;;;14.80;9.60;;;17.30;99.90;;;;;;4937401;29;20451;-83
2023/07/03 01:12:54;;;;;;;14.93;9.10;;;17.40;99.90;;;;;;4929602;29;20463;-81
2023/07/03 01:15:28;;;;;;;9.80;8.40;;;17.60;99.90;;;;;;4933304;29;20470;-83
2023/07/03 01:18:00;;;;;;;8.63;7.83;;;17.70;99.90;;;;;;4927880;29;20459;-82
2023/07/03 01:20:32;;;;;;;9.37;8.40;;;17.40;99.90;;;;;;4925429;29;20494;-82
2023/07/03 01:23:19;;;;;;;10.53;7.87;;;17.50;99.90;;;;;;4934887;29;20596;-82
2023/07/03 01:25:48;;;;;;;9.20;7.87;;;17.60;99.90;;;;;;4922887;29;20478;-83
2023/07/03 01:28:18;;;;;;;9.20;8.40;;;17.80;99.90;;;;;;4932731;29;20478;-82
2023/07/03 01:30:47;;;;;;;8.37;7.57;;;17.80;99.90;;;;;;4927802;29;21087;-82
2023/07/03 01:33:18;;;;;;;9.27;8.23;;;17.80;99.90;;;;;;4931994;29;20774;-83
2023/07/03 01:35:47;;;;;;;11.40;8.13;;;17.80;99.90;;;;;;4922195;29;20516;-83
2023/07/03 01:38:17;;;;;;;11.13;8.77;;;17.80;99.90;;;;;;4931860;29;20439;-81
2023/07/03 01:40:44;;;;;;;10.17;8.97;;;17.10;99.90;;;;;;4929429;29;20458;-82
2023/07/03 01:43:13;;;;;;;10.40;8.37;;;17.70;99.90;;;;;;4935902;29;20573;-82
2023/07/03 01:45:45;;;;;;;8.30;7.60;;;17.60;99.90;;;;;;4922265;29;20446;-83
2023/07/03 01:48:14;;;;;;;11.00;9.03;;;17.70;99.90;;;;;;4937313;29;20454;-82
2023/07/03 01:50:43;;;;;;;9.27;8.37;;;17.70;99.90;;;;;;4924280;29;20440;-82
2023/07/03 01:53:26;;;;;;;9.20;8.00;;;17.70;99.90;;;;;;4929593;29;20646;-83
2023/07/03 01:56:18;;;;;;;9.30;8.47;;;17.60;99.90;;;;;;4930446;29;20447;-82
2023/07/03 01:59:04;;;;;;;9.10;8.20;;;17.70;99.90;;;;;;4921742;29;20684;-82
2023/07/03 02:01:41;;;;;;;12.00;9.23;;;17.60;99.90;;;;;;4922423;29;20456;-81
2023/07/03 02:04:18;;;;;;;9.77;8.33;;;18.00;99.90;;;;;;4934157;29;20452;-83
2023/07/03 02:06:46;;;;;;;11.23;8.90;;;17.70;99.90;;;;;;4940993;29;20472;-82
2023/07/03 02:09:13;;;;;;;11.23;7.57;;;17.70;99.90;;;;;;4928725;29;20455;-82
2023/07/03 02:11:46;;;;;;;10.50;9.07;;;17.70;99.90;;;;;;4930909;29;20446;-83
2023/07/03 02:14:13;;;;;;;10.43;9.33;;;17.60;99.90;;;;;;4926268;29;20491;-82
2023/07/03 02:16:44;;;;;;;8.97;8.03;;;18.10;99.90;;;;;;4932439;29;20779;-83
2023/07/03 02:19:13;;;;;;;9.00;8.03;;;17.50;99.90;;;;;;4926272;29;20717;-82
2023/07/03 02:21:47;;;;;;;12.70;8.87;;;17.30;99.90;;;;;;4927305;29;20514;-81
2023/07/03 02:24:14;;;;;;;9.33;8.47;;;17.30;99.90;;;;;;4931036;29;20439;-82
2023/07/03 02:26:43;;;;;;;10.70;9.60;;;17.30;99.90;;;;;;4931284;29;20863;-81
2023/07/03 02:29:11;;;;;;;14.27;8.80;;;17.30;99.90;;;;;;4920378;29;20494;-82
2023/07/03 02:31:38;;;;;;;11.20;8.77;;;17.50;99.90;;;;;;4933263;29;20466;-84
2023/07/03 02:34:05;;;;;;;8.87;7.70;;;17.40;99.90;;;;;;4929768;29;20494;-82
2023/07/03 02:36:36;;;;;;;8.53;7.73;;;17.40;99.90;;;;;;4926060;29;20458;-82
2023/07/03 02:39:05;;;;;;;14.13;10.00;;;17.40;99.90;;;;;;4935772;29;20457;-82
2023/07/03 02:41:33;;;;;;;14.60;11.07;;;17.30;99.90;;;;;;4921076;29;20710;-83
2023/07/03 02:44:00;;;;;;;11.73;8.90;;;17.10;99.90;;;;;;4929287;29;20707;-83
2023/07/03 02:46:27;;;;;;;10.70;8.10;;;17.30;99.90;;;;;;4931169;29;20462;-82
2023/07/03 02:48:54;;;;;;;11.13;9.90;;;17.30;99.90;;;;;;4926383;29;20450;-82
2023/07/03 02:51:21;;;;;;;10.17;9.17;;;17.60;99.90;;;;;;4932425;29;20432;-82
2023/07/03 02:53:48;;;;;;;13.03;10.20;;;17.50;99.90;;;;;;4919581;29;20491;-81
2023/07/03 02:56:15;;;;;;;14.67;10.30;;;17.70;99.90;;;;;;4930320;29;20526;-83
2023/07/03 02:58:42;;;;;;;10.57;9.47;;;17.70;99.90;;;;;;4924126;29;20504;-82
2023/07/03 03:01:18;;;;;;;10.80;9.00;;;17.70;99.90;;;;;;4923831;29;20453;-82
2023/07/03 03:03:46;;;;;;;10.20;9.20;;;17.80;99.90;;;;;;4913584;29;20678;-83
2023/07/03 03:06:13;;;;;;;14.87;8.97;;;17.90;99.90;;;;;;4915843;29;20616;-82
2023/07/03 03:08:40;;;;;;;12.63;9.90;;;17.90;99.90;;;;;;4928019;29;20463;-83
2023/07/03 03:11:25;;;;;;;9.90;8.90;;;17.80;99.90;;;;;;4918110;29;20788;-82
2023/07/03 03:13:52;;;;;;;8.70;7.90;;;17.90;99.90;;;;;;4917867;29;20517;-82
2023/07/03 03:16:19;;;;;;;11.80;9.40;;;18.00;99.90;;;;;;4919023;29;20447;-83
2023/07/03 03:18:47;;;;;;;9.83;8.83;;;18.00;99.90;;;;;;4920254;29;20831;-81
2023/07/03 03:21:15;;;;;;;11.03;9.70;;;18.20;99.90;;;;;;4921574;29;20449;-82
2023/07/03 03:23:42;;;;;;;10.43;9.33;;;18.10;99.90;;;;;;4930534;29;20451;-82
2023/07/03 03:26:09;;;;;;;10.10;8.97;;;18.20;99.90;;;;;;4922299;29;20783;-82
2023/07/03 03:28:36;;;;;;;8.40;7.40;;;18.30;99.90;;;;;;4923302;29;20465;-82
2023/07/03 03:31:03;;;;;;;10.47;8.97;;;18.50;99.90;;;;;;4920824;29;20535;-81
2023/07/03 03:33:30;;;;;;;9.20;8.40;;;18.10;99.90;;;;;;4928302;29;20459;-82
2023/07/03 03:35:57;;;;;;;14.43;8.40;;;18.20;99.90;;;;;;4931900;29;20466;-82
2023/07/03 03:38:24;;;;;;;10.27;8.87;;;18.40;99.90;;;;;;4943435;29;20699;-82
2023/07/03 03:40:56;;;;;;;10.53;8.20;;;18.50;99.90;;;;;;4932896;29;20642;-83
2023/07/03 03:43:24;;;;;;;10.97;9.00;;;18.50;99.90;;;;;;4935111;29;20451;-82
2023/07/03 03:46:00;;;;;;;8.87;7.80;;;18.60;99.90;;;;;;4930481;29;20530;-82
2023/07/03 03:48:30;;;;;;;8.33;7.47;;;18.50;99.90;;;;;;4933926;29;20453;-83
2023/07/03 03:50:57;;;;;;;12.50;8.27;;;18.50;99.90;;;;;;4917602;29;20704;-81
2023/07/03 03:53:24;;;;;;;10.13;8.27;;;18.60;99.90;;;;;;4927824;29;20439;-82
2023/07/03 03:55:52;;;;;;;21.93;9.43;;;18.60;99.90;;;;;;4926838;29;20550;-82
2023/07/03 03:58:20;;;;;;;9.07;8.17;;;18.80;99.90;;;;;;4932404;29;20842;-81
2023/07/03 04:00:50;;;;;;;15.30;9.03;;;18.70;99.90;;;;;;4922699;29;20667;-82
2023/07/03 04:03:18;;;;;;;14.30;8.57;;;18.90;99.90;;;;;;4925943;29;20806;-81
2023/07/03 04:05:45;;;;;;;9.43;8.53;;;19.00;99.90;;;;;;4932917;29;20638;-81
2023/07/03 04:08:13;;;;;;;8.60;7.70;;;19.10;99.90;;;;;;4935212;29;20581;-80
2023/07/03 04:10:42;;;;;;;10.63;8.07;;;19.10;99.90;;;;;;4931013;29;20526;-82
2023/07/03 04:13:11;;;;;;;11.80;9.20;;;18.90;99.90;;;;;;4931425;29;20529;-82
2023/07/03 04:15:52;;;;;;;10.53;8.53;;;19.00;99.90;;;;;;4922620;29;20819;-82
2023/07/03 04:18:20;;;;;;;9.53;8.37;;;19.10;99.90;;;;;;4921747;29;20457;-81
2023/07/03 04:20:48;;;;;;;10.40;8.50;;;19.20;99.90;;;;;;4928582;29;20468;-81
2023/07/03 04:23:16;;;;;;;11.70;8.70;;;19.20;99.90;;;;;;4933350;29;20466;-82
2023/07/03 04:25:43;;;;;;;13.67;8.77;;;19.50;99.90;;;;;;4925475;29;20470;-83
2023/07/03 04:28:16;;;;;;;16.47;9.30;;;19.70;99.90;;;;;;4922659;29;20448;-84
2023/07/03 04:30:45;;;;;;;13.53;8.80;;;19.60;99.90;;;;;;4934798;29;20452;-84
2023/07/03 04:33:12;;;;;;;14.47;8.87;;;19.90;99.90;;;;;;4933913;29;20417;-83
2023/07/03 04:35:39;;;;;;;9.40;8.50;;;20.00;99.90;;;;;;4928099;29;20490;-83
2023/07/03 04:38:06;;;;;;;9.40;8.50;;;20.00;99.90;;;;;;4931299;29;20443;-83
2023/07/03 04:40:34;;;;;;;14.07;9.17;;;20.10;99.90;;;;;;4929464;29;20432;-81
2023/07/03 04:43:01;;;;;;;11.67;9.60;;;20.30;99.90;;;;;;4928050;29;20518;-80
2023/07/03 04:45:31;;;;;;;11.20;8.73;;;20.30;99.90;;;;;;4936438;29;20690;-81
2023/07/03 04:47:58;;;;;;;13.93;8.70;;;20.30;99.90;;;;;;4926417;29;21077;-80
2023/07/03 04:50:25;;;;;;;9.93;7.90;;;20.30;99.90;;;;;;4931069;29;20442;-79
2023/07/03 04:52:52;;;;;;;12.20;8.53;;;20.50;99.90;;;;;;4931069;29;20492;-81
2023/07/03 04:55:24;;;;;;;11.57;8.60;;;20.60;99.90;;;;;;4925541;29;20449;-80
2023/07/03 04:57:52;;;;;;;12.63;9.03;;;20.80;99.90;;;;;;4926444;29;20791;-79
2023/07/03 05:00:20;;;;;;;13.20;9.43;;;20.90;99.90;;;;;;4922538;29;20425;-80
2023/07/03 05:02:48;;;;;;;11.27;10.07;;;21.10;99.90;;;;;;4927484;29;20421;-79
2023/07/03 05:05:16;;;;;;;11.20;9.03;;;21.10;99.90;;;;;;4930965;29;20473;-80
2023/07/03 05:07:45;;;;;;;12.90;8.97;;;21.30;99.90;;;;;;4939292;29;20451;-80
2023/07/03 05:10:14;;;;;;;12.40;9.00;;;21.30;99.90;;;;;;4922596;29;20421;-81
2023/07/03 05:12:41;;;;;;;14.40;9.20;;;21.50;99.90;;;;;;4915614;29;20457;-80
2023/07/03 05:15:11;;;;;;;10.50;9.47;;;21.60;99.90;;;;;;4933031;29;20483;-79
2023/07/03 05:17:39;;;;;;;9.07;8.27;;;21.80;99.90;;;;;;4919543;29;20469;-80
2023/07/03 05:20:12;;;;;;;9.47;8.60;;;21.80;99.90;;;;;;4926255;29;20609;-81
2023/07/03 05:22:41;;;;;;;12.20;10.03;;;21.70;99.90;;;;;;4925126;29;20445;-80
2023/07/03 05:25:10;;;;;;;12.60;9.43;;;21.80;99.90;;;;;;4926042;29;20449;-80
2023/07/03 05:27:38;;;;;;;11.97;8.83;;;21.70;99.90;;;;;;4929042;29;20643;-80
2023/07/03 05:30:06;;;;;;;11.70;9.53;;;21.70;99.90;;;;;;4923076;29;20481;-80
2023/07/03 05:32:34;;;;;;;12.57;9.93;;;21.60;99.90;;;;;;4922930;29;21601;-81
2023/07/03 05:35:03;;;;;;;10.93;9.77;;;21.70;99.90;;;;;;4929996;29;20792;-80
2023/07/03 05:37:30;;;;;;;15.13;10.40;;;22.10;99.90;;;;;;4929821;29;20994;-80
2023/07/03 05:39:58;;;;;;;17.87;10.33;;;22.30;99.90;;;;;;4925231;29;20623;-79
2023/07/03 05:42:24;;;;;;;11.93;8.60;;;22.50;99.90;;;;;;4917520;29;20599;-79
2023/07/03 05:44:51;;;;;;;14.47;10.50;;;22.60;99.90;;;;;;4928313;29;20429;-79
2023/07/03 05:47:19;;;;;;;17.57;10.00;;;22.60;99.90;;;;;;4917566;29;20509;-80
2023/07/03 05:49:47;;;;;;;14.03;10.73;;;22.90;99.90;;;;;;4924892;29;20643;-82
2023/07/03 05:52:14;;;;;;;10.43;9.43;;;23.00;99.90;;;;;;4926247;29;20426;-78
2023/07/03 05:54:41;;;;;;;13.40;11.03;;;23.20;99.90;;;;;;4932350;29;20686;-80
2023/07/03 05:57:10;;;;;;;13.13;11.60;;;23.30;99.90;;;;;;4932892;29;20631;-80
2023/07/03 05:59:39;;;;;;;15.83;10.00;;;23.30;99.90;;;;;;4917671;29;20445;-81
2023/07/03 06:02:09;;;;;;;13.73;10.30;;;23.60;99.90;;;;;;4933817;29;20450;-81
2023/07/03 06:04:36;;;;;;;12.23;11.03;;;23.70;99.90;;;;;;4914374;29;20425;-79
2023/07/03 06:07:05;;;;;;;12.97;11.23;;;23.90;99.90;;;;;;4929174;29;20565;-83
2023/07/03 06:09:33;;;;;;;9.70;8.77;;;23.90;99.90;;;;;;4930272;29;20456;-80
2023/07/03 06:12:03;;;;;;;14.53;11.10;;;23.90;99.90;;;;;;4911334;29;20472;-80
2023/07/03 06:14:31;;;;;;;12.37;11.00;;;23.80;99.90;;;;;;4922189;29;20467;-79
2023/07/03 06:17:00;;;;;;;13.73;9.30;;;23.80;99.90;;;;;;4923585;29;20453;-81
2023/07/03 06:19:28;;;;;;;10.93;9.80;;;23.60;99.90;;;;;;4922704;29;20795;-80
2023/07/03 06:21:56;;;;;;;18.07;9.50;;;23.40;99.90;;;;;;4924505;29;20447;-79
2023/07/03 06:24:23;;;;;;;13.13;9.37;;;23.50;99.90;;;;;;4937996;29;20425;-79
2023/07/03 06:26:51;;;;;;;15.17;10.70;;;23.50;99.90;;;;;;4925295;29;20770;-79
2023/07/03 06:29:18;;;;;;;14.63;9.83;;;23.70;99.90;;;;;;4935570;29;20797;-82
2023/07/03 06:31:47;;;;;;;17.13;10.77;;;23.80;99.90;;;;;;4919404;29;20559;-84
2023/07/03 06:34:14;;;;;;;15.70;11.30;;;23.70;99.90;;;;;;4922301;29;20493;-79
2023/07/03 06:36:43;;;;;;;15.93;9.33;;;23.70;99.90;;;;;;4924269;29;20589;-81
2023/07/03 06:39:12;;;;;;;11.67;10.57;;;23.70;99.90;;;;;;4928036;29;20636;-82
2023/07/03 06:41:43;;;;;;;11.13;9.83;;;23.70;99.90;;;;;;4926853;29;20975;-82
2023/07/03 06:44:16;;;;;;;15.93;10.53;;;24.00;99.90;;;;;;4921200;29;20470;-80
2023/07/03 06:46:43;;;;;;;12.43;9.50;;;24.20;99.90;;;;;;4917909;29;20759;-80
2023/07/03 06:49:12;;;;;;;15.03;10.90;;;24.40;99.90;;;;;;4917517;29;20728;-79
2023/07/03 06:51:40;;;;;;;12.20;10.30;;;24.50;99.90;;;;;;4929585;29;20424;-81
2023/07/03 06:54:07;;;;;;;10.90;8.93;;;24.80;99.90;;;;;;4926939;29;20754;-80
2023/07/03 06:56:34;;;;;;;12.97;9.93;;;24.80;99.90;;;;;;4924868;29;20462;-80
2023/07/03 06:59:01;;;;;;;12.43;10.50;;;25.30;99.90;;;;;;4923865;29;20448;-82
2023/07/03 07:01:29;;;;;;;11.23;10.13;;;25.80;99.90;;;;;;4929450;29;20460;-82
2023/07/03 07:03:56;;;;;;;11.20;10.10;;;26.80;99.90;;;;;;4940383;29;20442;-81
2023/07/03 07:06:26;;;;;;;9.90;9.00;;;27.50;99.90;;;;;;4935948;29;20450;-79
2023/07/03 07:08:54;;;;;;;14.13;11.37;;;28.50;99.90;;;;;;4926250;29;20450;-80
2023/07/03 07:11:30;;;;;;;17.00;10.50;;;29.30;99.90;;;;;;4927402;29;20430;-79
2023/07/03 07:13:59;;;;;;;11.30;10.27;;;29.70;99.10;;;;;;4940934;29;20798;-80
2023/07/03 07:16:31;;;;;;;11.10;9.93;;;30.00;97.50;;;;;;4926508;29;20517;-81
2023/07/03 07:19:04;;;;;;;12.10;10.97;;;30.50;96.20;;;;;;4926650;29;20438;-78
2023/07/03 07:21:33;;;;;;;12.33;10.17;;;31.80;91.20;;;;;;4922844;29;20502;-80
2023/07/03 07:24:12;;;;;;;11.50;10.37;;;32.40;86.60;;;;;;4914808;29;20451;-82
2023/07/03 07:26:41;;;;;;;11.97;10.20;;;33.70;75.80;;;;;;4918407;29;20446;-82
2023/07/03 07:29:08;;;;;;;11.67;10.43;;;33.80;72.50;;;;;;4934830;29;20546;-82
2023/07/03 07:31:38;;;;;;;12.50;9.80;;;34.50;70.00;;;;;;4917859;29;20506;-82
2023/07/03 07:34:10;;;;;;;13.50;10.07;;;35.30;66.30;;;;;;4915356;29;20445;-82
2023/07/03 07:36:40;;;;;;;11.20;9.90;;;36.10;62.70;;;;;;4928914;29;20474;-83
2023/07/03 07:39:08;;;;;;;11.10;10.00;;;36.40;59.00;;;;;;4920599;29;20446;-85
2023/07/03 07:41:35;;;;;;;10.60;9.60;;;37.10;58.40;;;;;;4926530;29;20451;-83
2023/07/03 07:44:03;;;;;;;14.70;11.10;;;37.20;57.50;;;;;;4921682;29;20527;-81
2023/07/03 07:46:32;;;;;;;11.20;10.07;;;38.20;54.90;;;;;;4921202;29;20451;-82
2023/07/03 07:49:01;;;;;;;12.67;10.87;;;38.30;53.50;;;;;;4925120;29;20501;-81
2023/07/03 07:51:28;;;;;;;10.67;9.67;;;38.70;51.10;;;;;;4922789;29;20447;-81
2023/07/03 07:53:56;;;;;;;11.43;10.37;;;39.50;49.30;;;;;;4920372;29;20462;-83
2023/07/03 07:56:24;;;;;;;11.70;10.70;;;38.50;51.00;;;;;;4933720;29;20550;-84
2023/07/03 07:58:52;;;;;;;11.60;10.13;;;39.50;49.60;;;;;;4920925;29;20542;-84
2023/07/03 08:01:19;;;;;;;10.30;9.40;;;39.00;49.10;;;;;;4934709;29;20514;-83
2023/07/03 08:03:47;;;;;;;11.57;10.37;;;39.50;47.90;;;;;;4922064;29;20665;-83
2023/07/03 08:06:14;;;;;;;11.47;10.17;;;38.90;47.90;;;;;;4921050;29;20510;-81
2023/07/03 08:08:42;;;;;;;11.13;10.03;;;38.60;49.00;;;;;;4924581;29;20439;-81
2023/07/03 08:11:10;;;;;;;11.53;10.50;;;37.40;49.80;;;;;;4927820;29;20475;-82
2023/07/03 08:13:39;;;;;;;10.43;9.53;;;36.40;51.50;;;;;;4929635;29;20874;-81
2023/07/03 08:16:13;;;;;;;11.47;10.37;;;36.30;52.00;;;;;;4915050;29;20483;-82
2023/07/03 08:18:40;;;;;;;12.13;10.90;;;35.40;53.10;;;;;;4920764;29;20534;-81
2023/07/03 08:21:15;;;;;;;15.20;9.20;;;33.90;54.90;;;;;;4924080;29;20438;-82
2023/07/03 08:23:42;;;;;;;11.70;10.20;;;32.20;57.70;;;;;;4916699;29;20534;-80
2023/07/03 08:26:18;;;;;;;12.60;11.30;;;32.00;59.20;;;;;;4915958;29;20445;-83
2023/07/03 08:28:45;;;;;;;13.07;11.90;;;33.20;57.80;;;;;;4923339;29;20475;-81
2023/07/03 08:31:12;;;;;;;13.80;12.30;;;34.30;54.80;;;;;;4934349;29;20617;-83
2023/07/03 08:33:39;;;;;;;15.87;10.73;;;33.60;55.30;;;;;;4933261;29;20447;-79
2023/07/03 08:36:06;;;;;;;13.90;12.30;;;31.80;57.80;;;;;;4926551;29;20481;-82
2023/07/03 08:38:36;;;;;;;14.57;11.70;;;30.30;58.80;;;;;;4923930;29;20890;-81
2023/07/03 08:41:04;;;;;;;12.40;11.30;;;31.40;57.90;;;;;;4932923;29;20509;-81
2023/07/03 08:43:39;;;;;;;13.77;11.23;;;33.90;54.40;;;;;;4924264;29;20451;-81
2023/07/03 08:46:14;;;;;;;14.83;12.93;;;36.80;50.80;;;;;;4922607;29;20442;-82
2023/07/03 08:48:43;;;;;;;12.90;11.80;;;37.70;48.90;;;;;;4928465;29;20443;-80
2023/07/03 08:51:14;;;;;;;13.73;12.20;;;37.90;47.50;;;;;;4922358;29;20522;-82
2023/07/03 08:53:43;;;;;;;12.20;11.00;;;35.70;50.30;;;;;;4928402;29;20462;-79
2023/07/03 08:56:33;;;;;;;14.23;11.87;;;33.30;53.40;;;;;;4937738;29;20557;-82
2023/07/03 08:59:02;;;;;;;15.53;12.00;;;33.90;51.30;;;;;;4923749;29;20537;-80
2023/07/03 09:01:36;;;;;;;14.30;12.90;;;35.10;50.00;;;;;;4942119;29;20611;-82
2023/07/03 09:04:19;;;;;;;11.60;10.50;;;34.10;50.90;;;;;;4922473;29;20743;-85
2023/07/03 09:07:02;;;;;;;12.27;10.53;;;33.60;51.40;;;;;;4927559;29;20505;-81
2023/07/03 09:09:50;;;;;;;14.47;12.40;;;35.70;49.60;;;;;;4927007;29;20447;-78
2023/07/03 09:12:52;;;;;;;11.90;10.80;;;36.80;48.40;;;;;;4914911;29;20443;-78
2023/07/03 09:15:30;;;;;;;13.60;11.80;;;37.40;47.30;;;;;;4933935;29;20485;-82
2023/07/03 09:17:59;;;;;;;23.87;12.80;;;36.40;47.20;;;;;;4922254;29;20804;-80
2023/07/03 09:20:29;;;;;;;13.10;11.80;;;34.80;49.00;;;;;;4925411;29;20447;-78
2023/07/03 09:23:13;;;;;;;13.43;10.97;;;33.90;50.00;;;;;;4921092;29;20513;-81
2023/07/03 09:25:56;;;;;;;16.87;12.10;;;32.90;50.60;;;;;;4921045;29;20443;-80
2023/07/03 09:28:33;;;;;;;11.43;10.23;;;33.40;51.30;;;;;;4916967;29;20448;-82
2023/07/03 09:31:00;;;;;;;12.57;11.40;;;33.90;50.70;;;;;;4934523;29;20438;-77
2023/07/03 09:33:30;;;;;;;14.70;11.30;;;32.40;52.60;;;;;;4933060;29;20751;-80
2023/07/03 09:36:18;;;;;;;14.53;11.03;;;31.20;54.80;;;;;;4923015;29;20834;-80
2023/07/03 09:38:45;;;;;;;14.30;12.13;;;30.40;56.40;;;;;;4933658;29;20450;-82
2023/07/03 09:41:13;;;;;;;15.70;11.90;;;29.50;58.50;;;;;;4924464;29;20451;-80
2023/07/03 09:43:44;;;;;;;12.50;11.30;;;29.10;59.60;;;;;;4929850;29;20442;-81
2023/07/03 09:46:14;;;;;;;14.60;10.80;;;28.90;59.70;;;;;;4922898;29;20596;-82
2023/07/03 09:48:42;;;;;;;12.27;10.20;;;28.40;61.30;;;;;;4923457;29;20464;-81
2023/07/03 09:51:26;;;;;;;13.50;12.20;;;28.10;62.40;;;;;;4925436;29;20502;-79
2023/07/03 09:53:57;;;;;;;15.03;12.23;;;27.50;64.30;;;;;;4929457;29;20660;-81
2023/07/03 09:56:28;;;;;;;17.73;11.27;;;27.10;65.50;;;;;;4922554;29;20715;-82
2023/07/03 09:59:00;;;;;;;13.67;10.97;;;26.90;65.80;;;;;;4922661;29;20507;-80
2023/07/03 10:01:29;;;;;;;22.50;11.90;;;26.70;66.80;;;;;;4921465;29;20428;-82
2023/07/03 10:04:09;;;;;;;13.13;11.90;;;27.00;67.80;;;;;;4915763;29;20734;-83
2023/07/03 10:06:50;;;;;;;13.00;11.40;;;27.30;66.20;;;;;;4936235;29;20789;-81
2023/07/03 10:09:24;;;;;;;15.20;11.67;;;27.60;65.70;;;;;;4926873;29;20502;-80
2023/07/03 10:12:04;;;;;;;13.50;11.37;;;27.70;65.60;;;;;;4924844;29;20432;-80
2023/07/03 10:14:47;;;;;;;13.70;11.90;;;27.80;66.70;;;;;;4932114;29;20487;-81
2023/07/03 10:17:15;;;;;;;13.53;11.43;;;27.70;66.90;;;;;;4929133;29;20723;-79
2023/07/03 10:19:49;;;;;;;14.77;10.57;;;27.60;67.60;;;;;;4932618;29;20462;-79
2023/07/03 10:22:18;;;;;;;15.50;11.13;;;27.70;67.00;;;;;;4929909;29;20490;-80
2023/07/03 10:24:46;;;;;;;13.77;11.43;;;27.40;67.20;;;;;;4935438;29;20463;-81
2023/07/03 10:27:15;;;;;;;15.07;11.40;;;27.00;67.90;;;;;;4923982;29;20425;-79
2023/07/03 10:29:47;;;;;;;17.07;11.77;;;26.70;71.00;;;;;;4933974;29;20446;-81
2023/07/03 10:32:17;;;;;;;18.77;12.30;;;26.40;72.80;;;;;;4919754;29;20700;-80
2023/07/03 10:34:55;;;;;;;22.43;13.00;;;26.50;74.00;;;;;;4929649;29;20420;-80
2023/07/03 10:37:23;;;;;;;13.90;12.07;;;26.80;75.50;;;;;;4923705;29;20627;-81
2023/07/03 10:39:59;;;;;;;20.10;12.70;;;27.00;74.10;;;;;;4931987;29;20458;-82
2023/07/03 10:42:39;;;;;;;18.80;12.53;;;27.10;72.70;;;;;;4922786;29;20802;-80
2023/07/03 10:45:14;;;;;;;15.23;13.20;;;27.30;71.70;;;;;;4914467;29;20480;-80
2023/07/03 10:48:06;;;;;;;13.07;11.67;;;27.50;72.60;;;;;;4912864;29;20448;-81
2023/07/03 10:50:53;;;;;;;13.43;12.03;;;27.50;71.70;;;;;;4932289;29;20694;-81
2023/07/03 10:53:36;;;;;;;12.40;11.10;;;27.50;70.20;;;;;;4924382;29;20680;-79
2023/07/03 10:56:28;;;;;;;13.10;11.87;;;27.50;69.70;;;;;;4923718;29;20509;-80
2023/07/03 10:59:16;;;;;;;11.63;10.43;;;27.70;67.50;;;;;;4933008;29;20409;-80
2023/07/03 11:01:51;;;;;;;17.03;12.77;;;27.50;68.20;;;;;;4916734;29;20425;-81
2023/07/03 11:04:35;;;;;;;14.80;11.70;;;27.70;69.30;;;;;;4934190;29;20451;-82
2023/07/03 11:07:13;;;;;;;11.97;10.27;;;28.00;67.40;;;;;;4922573;29;20612;-82
2023/07/03 11:09:55;;;;;;;17.80;11.07;;;28.40;68.80;;;;;;4920900;29;20437;-79
2023/07/03 11:12:25;;;;;;;13.53;11.30;;;28.80;66.10;;;;;;4926384;29;20455;-81
2023/07/03 11:15:13;;;;;;;15.70;11.20;;;29.20;65.90;;;;;;4929136;29;20443;-78
2023/07/03 11:18:13;;;;;;;12.30;11.10;;;28.90;64.40;;;;;;4937390;29;20752;-81
2023/07/03 11:20:56;;;;;;;13.47;12.07;;;28.70;66.00;;;;;;4920874;29;20440;-80
2023/07/03 11:23:43;;;;;;;12.57;10.43;;;28.20;66.40;;;;;;4927219;29;20426;-78
2023/07/03 11:26:36;;;;;;;14.67;13.17;;;27.70;69.50;;;;;;4922054;29;20751;-81
2023/07/03 11:29:08;;;;;;;14.30;11.20;;;27.40;70.20;;;;;;4908586;29;20428;-81
2023/07/03 11:31:38;;;;;;;14.67;13.17;;;27.10;69.40;;;;;;4921286;29;20425;-80
2023/07/03 11:34:09;;;;;;;14.80;11.37;;;27.00;70.10;;;;;;4924450;29;20439;-79
2023/07/03 11:36:48;;;;;;;16.07;11.80;;;26.90;71.60;;;;;;4926659;29;20842;-81
2023/07/03 11:39:30;;;;;;;19.23;12.50;;;27.00;71.40;;;;;;4929811;29;20514;-80
2023/07/03 11:42:00;;;;;;;11.30;10.10;;;27.30;71.70;;;;;;4910372;29;20449;-80
2023/07/03 11:44:33;;;;;;;13.87;11.80;;;27.60;71.30;;;;;;4927873;29;20502;-79
2023/07/03 11:47:06;;;;;;;18.07;12.03;;;27.80;70.70;;;;;;4912064;29;20458;-83
2023/07/03 11:49:37;;;;;;;15.10;11.60;;;27.90;70.50;;;;;;4918283;29;20449;-80
2023/07/03 11:52:10;;;;;;;12.50;9.90;;;27.80;70.00;;;;;;4914440;29;20443;-80
2023/07/03 11:54:39;;;;;;;21.43;11.30;;;27.50;69.90;;;;;;4927967;29;20451;-82
2023/07/03 11:57:27;;;;;;;12.80;10.50;;;27.10;69.70;;;;;;4927259;29;20505;-80
2023/07/03 12:00:16;;;;;;;11.87;10.70;;;27.20;70.60;;;;;;4927357;29;20746;-82
2023/07/03 12:02:55;;;;;;;13.20;10.83;;;27.60;68.00;;;;;;4924479;29;20559;-81
2023/07/03 12:05:41;;;;;;;12.83;10.70;;;27.80;68.30;;;;;;4908420;29;20439;-80
2023/07/03 12:08:17;;;;;;;17.13;11.00;;;27.20;68.90;;;;;;4921930;29;20755;-79
2023/07/03 12:10:52;;;;;;;13.27;9.20;;;27.00;70.70;;;;;;4918153;29;20421;-86
2023/07/03 12:13:40;;;;;;;12.50;9.70;;;27.20;72.10;;;;;;4925849;29;20458;-80
2023/07/03 12:16:20;;;;;;;10.93;9.57;;;27.00;71.80;;;;;;4913620;29;20469;-81
2023/07/03 12:19:00;;;;;;;15.10;10.30;;;26.90;71.80;;;;;;4926192;29;20424;-81
2023/07/03 12:21:40;;;;;;;12.20;10.93;;;26.90;73.50;;;;;;4921009;29;20416;-81
2023/07/03 12:24:23;;;;;;;15.97;10.67;;;27.10;72.70;;;;;;4913130;29;20457;-80
2023/07/03 12:27:03;;;;;;;15.50;10.07;;;27.20;72.30;;;;;;4928214;29;20500;-81
2023/07/03 12:29:36;;;;;;;14.00;11.13;;;27.50;70.60;;;;;;4916740;29;20419;-84
2023/07/03 12:32:07;;;;;;;12.40;9.83;;;27.60;69.00;;;;;;4919968;29;20522;-82
2023/07/03 12:34:42;;;;;;;14.23;9.10;;;27.60;68.50;;;;;;4930788;29;20454;-80
2023/07/03 12:37:15;;;;;;;9.93;8.97;;;27.60;65.50;;;;;;4922436;29;20556;-81
2023/07/03 12:39:43;;;;;;;9.50;8.57;;;27.40;64.30;;;;;;4938496;29;20531;-79
2023/07/03 12:42:14;;;;;;;9.80;7.33;;;27.30;64.40;;;;;;4924628;29;20443;-81
2023/07/03 12:44:42;;;;;;;10.23;8.53;;;27.10;64.70;;;;;;4920721;29;20668;-80
2023/07/03 12:47:16;;;;;;;11.30;9.20;;;27.10;63.00;;;;;;4931688;29;20459;-81
2023/07/03 12:50:02;;;;;;;9.63;7.80;;;27.00;63.00;;;;;;4925977;29;20426;-82
2023/07/03 12:52:31;;;;;;;14.43;8.43;;;26.80;64.40;;;;;;4923937;29;20431;-81
2023/07/03 12:55:00;;;;;;;10.67;9.10;;;26.70;65.60;;;;;;4913388;29;20483;-81